Whitehall, Wisconsin
Current Conditions -  °F | °C
As of 4:15 PM on Sunday 23 Nov 2014 (Local Time) from KBCK Reporting Station
Drizzle Drizzle  
Wind Chill: 48°   Ceiling: 900
Heat Index: 50°   Visibility: 4mi
Dew Point: 50°   Wind: 5mph
Humidity: 100%   Direction: 130°SE
Pressure: 29.36"   Gusts: NA
Location:  44.37°N, 91.32°W
Report Text: KBCK 232215Z AUTO 13004KT 4SM -DZ BKN009 OVC016 10/10 A2936 RMK AO2 P0001 T00990099
Loading
Personal Weather Stations






























Interactive Weather Map New forecast layout! Learn more

10-Day Weather Forecast

Advertisements
Track Severe Weather on mobile